KLRU

Las Cruces International Airport

Las Cruces, New Mexico, USA
METAR KLRU 172115Z AUTO 00000KT 10SM CLR 15/07 A3018 RMK AO2 T01500071
Observed Flight Rules
Feb-17 @ 21:15 UTC (19 minutes ago) Visual Flight Rules
Wind Visibility Clouds
Calm 10 miles
  • Clear skies
Temperatures Readings
Current 15°C / 59°F
Dewpoint 7°C / 45°F
Humidity 59%
Altimeter 30.18" Hg
Pressure 1022 hPa
Elevation 1358
METAR KLRU 172115Z AUTO 00000KT 10SM CLR 15/07 A3018 RMK AO2 T01500071
Observed Flight Rules
Feb-17 @ 21:15 UTC
(19 minutes ago)
VFR
Wind Visibility
Calm 10 miles
Clouds
  • Clear skies
Temperature Dewpoint
15°C / 59°F 7°C / 45°F
Humidity Altimeter Pressure
59% 30.18" Hg 1022 hPa